Arcadia, Missouri
Current Conditions -  °F | °C
As of 8:35 AM on Monday 22 Dec 2014 (Local Time) from KFAM Reporting Station
Overcast Overcast  
Wind Chill: 35°   Ceiling: 400
Heat Index: 43°   Visibility: 8mi
Dew Point: 43°   Wind: 17mph
Humidity: 100%   Direction: 120°ESE
Pressure: 29.76"   Gusts: 23mph
Location:  37.59°N, 90.63°W
Report Text: KFAM 221435Z AUTO 12015G20KT 8SM OVC004 06/06 A2976 RMK AO1 P0001
Loading
Personal Weather Stations






























Interactive Weather Map New forecast layout! Learn more

10-Day Weather Forecast

Advertisements
Track Severe Weather on mobile